Details From LJLJ - Ljubljana
To HESH - Sharm El Sheikh Intl
Flight Number -
Tags Generated
Created
Modified
Stats Distance 1,447 nm / 2,679 km
Max Altitude 0 ft / 0 m
Waypoints 6
Social Downloads 0
Likes 0
Share VATSIM

Download

Looking for another format? Having issues loading an existing format? Contact us
Advertisement - Login to hide

Notes

Generated

Route

LJLJ RUDAR TSL26 LETSO SHM04 HESH

ID Type Via Altitude Latitude Longitude Leg Dist Tot Dist Heading (true) Name
O LJLJ APT - 0 ft / 0 m 46.23249˚ 14.44039˚ - 0 nm - -
RUDAR FIX - 0 ft / 0 m 43.64861˚ 18.48917˚ 231 nm 231 nm 131° / 133° -
TSL26 FIX - 0 ft / 0 m 40.44798˚ 22.42320˚ 260 nm 491 nm 136° / 139° -
LETSO FIX - 0 ft / 0 m 37.45650˚ 25.65776˚ 234 nm 726 nm 139° / 141° -
SHM04 FIX - 0 ft / 0 m 27.96870˚ 34.38250˚ 719 nm 1446 nm 140° / 145° -
O HESH APT - 0 ft / 0 m 27.96574˚ 34.38598˚ 0 nm 1446 nm 134° / 134° -

Altitude Profile

Advertisement - Login to hide

Weather


0- 5 10 15 20 25 30 35+ Temperature / ° C

Clouds and Precipitation
Forecast for 2017-12-13 18:00 UTC. Updated 11 minutes ago

Ground ~20,000 ft ~40,000 ft Winds

LJLJ

Details ICAO LJLJ (LJU)
Name LJUBLJANA
Region Slovenia
Timezone Europe/Ljubljana (UTC+1.0)
Stats Elevation 1,273 ft / 388 m (AMSL)
Location 46.223685° 14.457608°
Runways 1
Magnetic Variation 3.661° E

METAR

LJLJ 131530Z 22002KT 7000 FEW007 OVC038 01/00 Q1016 R30/29//95 NOSIG

Decode

TAF

TAF TAF LJLJ 131400Z 1315/1415 30003KT 7000 -RASN BKN010 OVC035 BECMG 1315/1318 NSW OVC035 TEMPO 1318/1403 3500 -SNRA BR BKN010 OVC020 PROB30 TEMPO 1412/1415 -SHRA SCT035TCU

Decode

Departure Runways

ID Width Length Bearing (true) Bearing (mag) Surface Threshold Offset Overrun Length
13 148 ft / 45 m 10,811 ft / 3,295 m 126.47° 122.81° Asphalt 0 ft / 0 m 0 ft / 0 m
31 148 ft / 45 m 10,811 ft / 3,295 m 306.49° 302.83° Asphalt 0 ft / 0 m 0 ft / 0 m

HESH

Details ICAO HESH (SSH)
Name SHARM EL SHEIKH INTL
Region Egypt
Timezone Africa/Cairo (UTC+2.0)
Stats Elevation 143 ft / 44 m (AMSL)
Location 27.977318° 34.394945°
Runways 2
Magnetic Variation 4.281° E

METAR

HESH 131400Z 36013KT CAVOK 25/10 Q1014 NOSIG

Decode

TAF

TAF TAF HESH 130500Z 1306/1412 02006G18KT CAVOK

Decode

Destination Runways

ID Width Length Bearing (true) Bearing (mag) Surface Threshold Offset Overrun Length
04L 148 ft / 45 m 10,120 ft / 3,085 m 42.65° 38.37° Asphalt 0 ft / 0 m 200 ft / 61 m
04R 148 ft / 45 m 10,121 ft / 3,085 m 42.65° 38.37° Asphalt 0 ft / 0 m 200 ft / 61 m
22L 148 ft / 45 m 10,121 ft / 3,085 m 222.66° 218.38° Asphalt 0 ft / 0 m 200 ft / 61 m
22R 148 ft / 45 m 10,120 ft / 3,085 m 222.66° 218.38° Asphalt 0 ft / 0 m 200 ft / 61 m

Approach Navaids

Runway Type Ident Frequency Range Bearing (true) Bearing (mag) Slope Elevation
04L Localiser KIL 109.50 MHz 18 nm / 33 km 42.67° 38.39° - 130 ft / 40 m (AMSL)
04L Glidescope KIL 109.50 MHz 10 nm / 19 km 42.65° 38.37° 3.00° 160 ft / 49 m (AMSL)
04L DME KIL 109.50 MHz 18 nm / 33 km - - - 160 ft / 49 m (AMSL)

Popular Alternatives